sensor_id;sensor_type;location;lat;lon;timestamp;temperature;humidity
59311;DHT22;45078;51.654;21.250;2022-08-19T00:00:08;19.50;99.90
59311;DHT22;45078;51.654;21.250;2022-08-19T00:02:35;19.40;99.90
59311;DHT22;45078;51.654;21.250;2022-08-19T00:05:02;19.30;99.90
59311;DHT22;45078;51.654;21.250;2022-08-19T00:07:28;19.30;99.90
59311;DHT22;45078;51.654;21.250;2022-08-19T00:09:54;19.40;99.90
59311;DHT22;45078;51.654;21.250;2022-08-19T00:12:20;19.40;99.90
59311;DHT22;45078;51.654;21.250;2022-08-19T00:14:46;19.30;99.90
59311;DHT22;45078;51.654;21.250;2022-08-19T00:17:12;19.30;99.90
59311;DHT22;45078;51.654;21.250;2022-08-19T00:19:38;19.30;99.90
59311;DHT22;45078;51.654;21.250;2022-08-19T00:22:04;19.20;99.90
59311;DHT22;45078;51.654;21.250;2022-08-19T00:24:32;19.20;99.90
59311;DHT22;45078;51.654;21.250;2022-08-19T00:26:58;19.20;99.90
59311;DHT22;45078;51.654;21.250;2022-08-19T00:29:25;19.10;99.90
59311;DHT22;45078;51.654;21.250;2022-08-19T00:31:51;19.10;99.90
59311;DHT22;45078;51.654;21.250;2022-08-19T00:34:22;19.00;99.90
59311;DHT22;45078;51.654;21.250;2022-08-19T00:36:48;18.90;99.90
59311;DHT22;45078;51.654;21.250;2022-08-19T00:39:15;19.00;99.90
59311;DHT22;45078;51.654;21.250;2022-08-19T00:41:42;19.10;99.90
59311;DHT22;45078;51.654;21.250;2022-08-19T00:44:18;19.30;99.90
59311;DHT22;45078;51.654;21.250;2022-08-19T00:46:49;19.40;99.90
59311;DHT22;45078;51.654;21.250;2022-08-19T00:49:22;19.50;99.90
59311;DHT22;45078;51.654;21.250;2022-08-19T00:51:51;19.60;99.90
59311;DHT22;45078;51.654;21.250;2022-08-19T00:54:19;19.70;99.90
59311;DHT22;45078;51.654;21.250;2022-08-19T00:56:46;19.80;99.90
59311;DHT22;45078;51.654;21.250;2022-08-19T00:59:13;19.80;99.90
59311;DHT22;45078;51.654;21.250;2022-08-19T01:01:42;19.80;99.90
59311;DHT22;45078;51.654;21.250;2022-08-19T01:04:09;19.90;99.90
59311;DHT22;45078;51.654;21.250;2022-08-19T01:06:39;19.90;99.90
59311;DHT22;45078;51.654;21.250;2022-08-19T01:09:07;19.90;99.90
59311;DHT22;45078;51.654;21.250;2022-08-19T01:11:35;19.90;99.90
59311;DHT22;45078;51.654;21.250;2022-08-19T01:14:02;20.00;99.90
59311;DHT22;45078;51.654;21.250;2022-08-19T01:16:30;20.00;99.90
59311;DHT22;45078;51.654;21.250;2022-08-19T01:18:57;20.10;99.90
59311;DHT22;45078;51.654;21.250;2022-08-19T01:21:34;20.00;99.90
59311;DHT22;45078;51.654;21.250;2022-08-19T01:24:03;20.10;99.90
59311;DHT22;45078;51.654;21.250;2022-08-19T01:26:29;20.10;99.90
59311;DHT22;45078;51.654;21.250;2022-08-19T01:28:58;20.00;99.90
59311;DHT22;45078;51.654;21.250;2022-08-19T01:31:26;20.00;99.90
59311;DHT22;45078;51.654;21.250;2022-08-19T01:33:55;20.00;99.90
59311;DHT22;45078;51.654;21.250;2022-08-19T01:36:46;20.00;99.90
59311;DHT22;45078;51.654;21.250;2022-08-19T01:39:22;20.00;99.90
59311;DHT22;45078;51.654;21.250;2022-08-19T01:41:49;19.90;99.90
59311;DHT22;45078;51.654;21.250;2022-08-19T01:44:16;19.90;99.90
59311;DHT22;45078;51.654;21.250;2022-08-19T01:46:43;19.90;99.90
59311;DHT22;45078;51.654;21.250;2022-08-19T01:49:10;19.90;99.90
59311;DHT22;45078;51.654;21.250;2022-08-19T01:51:36;19.80;99.90
59311;DHT22;45078;51.654;21.250;2022-08-19T01:54:03;19.80;99.90
59311;DHT22;45078;51.654;21.250;2022-08-19T01:56:28;19.80;99.90
59311;DHT22;45078;51.654;21.250;2022-08-19T01:59:04;19.80;99.90
59311;DHT22;45078;51.654;21.250;2022-08-19T02:01:31;19.80;99.90
59311;DHT22;45078;51.654;21.250;2022-08-19T02:04:01;19.80;99.90
59311;DHT22;45078;51.654;21.250;2022-08-19T02:09:04;19.80;99.90
59311;DHT22;45078;51.654;21.250;2022-08-19T02:11:32;19.80;99.90
59311;DHT22;45078;51.654;21.250;2022-08-19T02:14:01;19.70;99.90
59311;DHT22;45078;51.654;21.250;2022-08-19T02:16:31;19.80;99.90
59311;DHT22;45078;51.654;21.250;2022-08-19T02:18:57;19.70;99.90
59311;DHT22;45078;51.654;21.250;2022-08-19T02:21:26;19.70;99.90
59311;DHT22;45078;51.654;21.250;2022-08-19T02:23:52;19.70;99.90
59311;DHT22;45078;51.654;21.250;2022-08-19T02:26:19;19.70;99.90
59311;DHT22;45078;51.654;21.250;2022-08-19T02:28:45;19.60;99.90
59311;DHT22;45078;51.654;21.250;2022-08-19T02:31:16;19.60;99.90
59311;DHT22;45078;51.654;21.250;2022-08-19T02:33:43;19.50;99.90
59311;DHT22;45078;51.654;21.250;2022-08-19T02:36:11;19.40;99.90
59311;DHT22;45078;51.654;21.250;2022-08-19T02:38:38;19.40;99.90
59311;DHT22;45078;51.654;21.250;2022-08-19T02:41:07;19.40;99.90
59311;DHT22;45078;51.654;21.250;2022-08-19T02:43:35;19.40;99.90
59311;DHT22;45078;51.654;21.250;2022-08-19T02:46:25;19.40;99.90
59311;DHT22;45078;51.654;21.250;2022-08-19T02:48:52;19.40;99.90
59311;DHT22;45078;51.654;21.250;2022-08-19T02:51:40;19.30;99.90
59311;DHT22;45078;51.654;21.250;2022-08-19T02:54:08;19.30;99.90
59311;DHT22;45078;51.654;21.250;2022-08-19T02:56:36;19.30;99.90
59311;DHT22;45078;51.654;21.250;2022-08-19T02:59:04;19.30;99.90
59311;DHT22;45078;51.654;21.250;2022-08-19T03:01:35;19.20;99.90
59311;DHT22;45078;51.654;21.250;2022-08-19T03:04:04;19.20;99.90
59311;DHT22;45078;51.654;21.250;2022-08-19T03:06:31;19.10;99.90
59311;DHT22;45078;51.654;21.250;2022-08-19T03:08:57;19.20;99.90
59311;DHT22;45078;51.654;21.250;2022-08-19T03:11:30;19.10;99.90
59311;DHT22;45078;51.654;21.250;2022-08-19T03:13:56;19.10;99.90
59311;DHT22;45078;51.654;21.250;2022-08-19T03:16:25;19.10;99.90
59311;DHT22;45078;51.654;21.250;2022-08-19T03:18:51;19.20;99.90
59311;DHT22;45078;51.654;21.250;2022-08-19T03:21:20;19.20;99.90
59311;DHT22;45078;51.654;21.250;2022-08-19T03:23:46;19.20;99.90
59311;DHT22;45078;51.654;21.250;2022-08-19T03:26:12;19.20;99.90
59311;DHT22;45078;51.654;21.250;2022-08-19T03:28:40;19.20;99.90
59311;DHT22;45078;51.654;21.250;2022-08-19T03:31:13;19.20;99.90
59311;DHT22;45078;51.654;21.250;2022-08-19T03:33:39;19.20;99.90
59311;DHT22;45078;51.654;21.250;2022-08-19T03:36:12;19.20;99.90
59311;DHT22;45078;51.654;21.250;2022-08-19T03:38:45;19.20;99.90
59311;DHT22;45078;51.654;21.250;2022-08-19T03:41:15;19.20;99.90
59311;DHT22;45078;51.654;21.250;2022-08-19T03:43:41;19.30;99.90
59311;DHT22;45078;51.654;21.250;2022-08-19T03:46:13;19.30;99.90
59311;DHT22;45078;51.654;21.250;2022-08-19T03:48:42;19.30;99.90
59311;DHT22;45078;51.654;21.250;2022-08-19T03:51:20;19.30;99.90
59311;DHT22;45078;51.654;21.250;2022-08-19T03:53:47;19.30;99.90
59311;DHT22;45078;51.654;21.250;2022-08-19T03:56:14;19.30;99.90
59311;DHT22;45078;51.654;21.250;2022-08-19T03:58:40;19.30;99.90
59311;DHT22;45078;51.654;21.250;2022-08-19T04:01:12;19.30;99.90
59311;DHT22;45078;51.654;21.250;2022-08-19T04:03:39;19.30;99.90
59311;DHT22;45078;51.654;21.250;2022-08-19T04:06:12;19.40;99.90
59311;DHT22;45078;51.654;21.250;2022-08-19T04:08:39;19.40;99.90
59311;DHT22;45078;51.654;21.250;2022-08-19T04:11:11;19.40;99.90
59311;DHT22;45078;51.654;21.250;2022-08-19T04:13:37;19.40;99.90
59311;DHT22;45078;51.654;21.250;2022-08-19T04:16:04;19.50;99.90
59311;DHT22;45078;51.654;21.250;2022-08-19T04:18:31;19.60;99.90
59311;DHT22;45078;51.654;21.250;2022-08-19T04:20:59;19.60;99.90
59311;DHT22;45078;51.654;21.250;2022-08-19T04:23:25;19.60;99.90
59311;DHT22;45078;51.654;21.250;2022-08-19T04:25:54;19.70;99.90
59311;DHT22;45078;51.654;21.250;2022-08-19T04:28:20;19.80;99.90
59311;DHT22;45078;51.654;21.250;2022-08-19T04:30:48;19.90;99.90
59311;DHT22;45078;51.654;21.250;2022-08-19T04:33:17;20.00;99.90
59311;DHT22;45078;51.654;21.250;2022-08-19T04:35:47;20.10;99.90
59311;DHT22;45078;51.654;21.250;2022-08-19T04:38:18;20.20;99.90
59311;DHT22;45078;51.654;21.250;2022-08-19T04:40:47;20.40;99.90
59311;DHT22;45078;51.654;21.250;2022-08-19T04:43:32;20.50;99.90
59311;DHT22;45078;51.654;21.250;2022-08-19T04:46:05;20.60;99.90
59311;DHT22;45078;51.654;21.250;2022-08-19T04:48:31;20.80;99.90
59311;DHT22;45078;51.654;21.250;2022-08-19T04:50:57;20.80;99.90
59311;DHT22;45078;51.654;21.250;2022-08-19T04:53:28;21.00;99.90
59311;DHT22;45078;51.654;21.250;2022-08-19T04:55:55;21.10;99.90
59311;DHT22;45078;51.654;21.250;2022-08-19T04:58:22;21.20;99.90
59311;DHT22;45078;51.654;21.250;2022-08-19T05:00:48;21.30;99.90
59311;DHT22;45078;51.654;21.250;2022-08-19T05:03:14;21.30;99.90
59311;DHT22;45078;51.654;21.250;2022-08-19T05:05:43;21.30;99.90
59311;DHT22;45078;51.654;21.250;2022-08-19T05:08:10;21.30;99.90
59311;DHT22;45078;51.654;21.250;2022-08-19T05:10:38;21.30;99.90
59311;DHT22;45078;51.654;21.250;2022-08-19T05:13:05;21.30;99.90
59311;DHT22;45078;51.654;21.250;2022-08-19T05:15:31;21.30;99.90
59311;DHT22;45078;51.654;21.250;2022-08-19T05:17:57;21.30;99.90
59311;DHT22;45078;51.654;21.250;2022-08-19T05:20:41;21.30;99.90
59311;DHT22;45078;51.654;21.250;2022-08-19T05:23:26;21.40;99.90
59311;DHT22;45078;51.654;21.250;2022-08-19T05:25:52;21.50;99.90
59311;DHT22;45078;51.654;21.250;2022-08-19T05:28:19;21.60;99.90
59311;DHT22;45078;51.654;21.250;2022-08-19T05:30:45;21.80;99.90
59311;DHT22;45078;51.654;21.250;2022-08-19T05:33:12;22.00;99.90
59311;DHT22;45078;51.654;21.250;2022-08-19T05:35:38;22.20;99.90
59311;DHT22;45078;51.654;21.250;2022-08-19T05:38:05;22.50;99.90
59311;DHT22;45078;51.654;21.250;2022-08-19T05:40:36;22.70;99.90
59311;DHT22;45078;51.654;21.250;2022-08-19T05:43:04;23.00;99.90
59311;DHT22;45078;51.654;21.250;2022-08-19T05:45:30;23.10;99.90
59311;DHT22;45078;51.654;21.250;2022-08-19T05:47:56;23.10;99.90
59311;DHT22;45078;51.654;21.250;2022-08-19T05:50:22;23.10;99.90
59311;DHT22;45078;51.654;21.250;2022-08-19T05:52:48;23.00;99.90
59311;DHT22;45078;51.654;21.250;2022-08-19T05:55:14;23.10;99.90
59311;DHT22;45078;51.654;21.250;2022-08-19T05:57:40;23.20;99.90
59311;DHT22;45078;51.654;21.250;2022-08-19T06:00:06;23.30;99.90
59311;DHT22;45078;51.654;21.250;2022-08-19T06:02:37;23.30;99.90
59311;DHT22;45078;51.654;21.250;2022-08-19T06:05:04;23.50;99.90
59311;DHT22;45078;51.654;21.250;2022-08-19T06:07:33;23.50;99.90
59311;DHT22;45078;51.654;21.250;2022-08-19T06:09:59;23.40;99.90
59311;DHT22;45078;51.654;21.250;2022-08-19T06:12:24;23.50;99.90
59311;DHT22;45078;51.654;21.250;2022-08-19T06:14:54;23.60;99.90
59311;DHT22;45078;51.654;21.250;2022-08-19T06:17:20;23.70;99.90
59311;DHT22;45078;51.654;21.250;2022-08-19T06:19:50;23.80;99.90
59311;DHT22;45078;51.654;21.250;2022-08-19T06:22:16;24.00;99.90
59311;DHT22;45078;51.654;21.250;2022-08-19T06:24:42;24.10;99.90
59311;DHT22;45078;51.654;21.250;2022-08-19T06:27:07;24.20;99.90
59311;DHT22;45078;51.654;21.250;2022-08-19T06:29:34;24.40;99.90
59311;DHT22;45078;51.654;21.250;2022-08-19T06:32:02;24.50;99.90
59311;DHT22;45078;51.654;21.250;2022-08-19T06:34:30;24.50;99.90
59311;DHT22;45078;51.654;21.250;2022-08-19T06:36:59;24.60;99.90
59311;DHT22;45078;51.654;21.250;2022-08-19T06:39:32;24.70;99.90
59311;DHT22;45078;51.654;21.250;2022-08-19T06:42:00;24.80;99.90
59311;DHT22;45078;51.654;21.250;2022-08-19T06:44:29;24.90;99.90
59311;DHT22;45078;51.654;21.250;2022-08-19T06:46:58;24.90;99.90
59311;DHT22;45078;51.654;21.250;2022-08-19T06:49:24;25.10;99.90
59311;DHT22;45078;51.654;21.250;2022-08-19T06:51:54;25.30;99.90
59311;DHT22;45078;51.654;21.250;2022-08-19T06:54:22;25.10;99.90
59311;DHT22;45078;51.654;21.250;2022-08-19T06:56:48;25.30;99.90
59311;DHT22;45078;51.654;21.250;2022-08-19T06:59:18;25.30;99.90
59311;DHT22;45078;51.654;21.250;2022-08-19T07:01:52;25.30;99.90
59311;DHT22;45078;51.654;21.250;2022-08-19T07:04:21;25.50;99.90
59311;DHT22;45078;51.654;21.250;2022-08-19T07:06:48;25.60;99.90
59311;DHT22;45078;51.654;21.250;2022-08-19T07:09:16;25.80;99.90
59311;DHT22;45078;51.654;21.250;2022-08-19T07:11:51;25.90;99.90
59311;DHT22;45078;51.654;21.250;2022-08-19T07:14:20;26.00;99.90
59311;DHT22;45078;51.654;21.250;2022-08-19T07:16:49;26.10;99.90
59311;DHT22;45078;51.654;21.250;2022-08-19T07:19:17;26.10;99.90
59311;DHT22;45078;51.654;21.250;2022-08-19T07:21:43;26.30;99.90
59311;DHT22;45078;51.654;21.250;2022-08-19T07:24:09;26.50;99.90
59311;DHT22;45078;51.654;21.250;2022-08-19T07:26:39;26.60;99.90
59311;DHT22;45078;51.654;21.250;2022-08-19T07:29:06;26.60;99.90
59311;DHT22;45078;51.654;21.250;2022-08-19T07:31:32;26.70;99.90
59311;DHT22;45078;51.654;21.250;2022-08-19T07:34:03;26.90;99.90
59311;DHT22;45078;51.654;21.250;2022-08-19T07:36:32;27.00;99.90
59311;DHT22;45078;51.654;21.250;2022-08-19T07:39:02;27.10;99.90
59311;DHT22;45078;51.654;21.250;2022-08-19T07:41:29;27.20;99.90
59311;DHT22;45078;51.654;21.250;2022-08-19T07:43:58;27.30;99.90
59311;DHT22;45078;51.654;21.250;2022-08-19T07:46:27;27.40;99.90
59311;DHT22;45078;51.654;21.250;2022-08-19T07:48:53;27.40;99.90
59311;DHT22;45078;51.654;21.250;2022-08-19T07:51:21;27.20;99.90
59311;DHT22;45078;51.654;21.250;2022-08-19T07:53:48;27.30;99.90
59311;DHT22;45078;51.654;21.250;2022-08-19T07:56:16;27.40;99.90
59311;DHT22;45078;51.654;21.250;2022-08-19T07:58:44;27.50;99.90
59311;DHT22;45078;51.654;21.250;2022-08-19T08:01:14;27.50;99.90
59311;DHT22;45078;51.654;21.250;2022-08-19T08:03:41;27.60;99.90
59311;DHT22;45078;51.654;21.250;2022-08-19T08:06:26;27.80;99.90
59311;DHT22;45078;51.654;21.250;2022-08-19T08:09:12;27.80;99.90
59311;DHT22;45078;51.654;21.250;2022-08-19T08:11:44;27.80;99.90
59311;DHT22;45078;51.654;21.250;2022-08-19T08:14:18;27.90;99.90
59311;DHT22;45078;51.654;21.250;2022-08-19T08:16:44;28.00;99.90
59311;DHT22;45078;51.654;21.250;2022-08-19T08:19:12;27.90;99.90
59311;DHT22;45078;51.654;21.250;2022-08-19T08:21:40;27.90;99.90
59311;DHT22;45078;51.654;21.250;2022-08-19T08:24:06;28.00;99.90
59311;DHT22;45078;51.654;21.250;2022-08-19T08:26:32;28.00;99.90
59311;DHT22;45078;51.654;21.250;2022-08-19T08:28:58;28.10;99.90
59311;DHT22;45078;51.654;21.250;2022-08-19T08:31:24;28.20;99.90
59311;DHT22;45078;51.654;21.250;2022-08-19T08:33:50;28.20;99.90
59311;DHT22;45078;51.654;21.250;2022-08-19T08:36:16;28.20;99.90
59311;DHT22;45078;51.654;21.250;2022-08-19T08:44:34;28.50;99.90
59311;DHT22;45078;51.654;21.250;2022-08-19T08:47:10;28.50;99.90
59311;DHT22;45078;51.654;21.250;2022-08-19T08:54:55;28.60;99.90
59311;DHT22;45078;51.654;21.250;2022-08-19T08:57:30;28.60;99.90
59311;DHT22;45078;51.654;21.250;2022-08-19T09:00:00;28.70;99.90
59311;DHT22;45078;51.654;21.250;2022-08-19T09:02:29;28.90;99.90
59311;DHT22;45078;51.654;21.250;2022-08-19T09:04:55;29.00;99.90
59311;DHT22;45078;51.654;21.250;2022-08-19T09:09:56;29.00;99.90
59311;DHT22;45078;51.654;21.250;2022-08-19T09:15:30;29.00;99.90
59311;DHT22;45078;51.654;21.250;2022-08-19T09:18:00;29.10;99.90
59311;DHT22;45078;51.654;21.250;2022-08-19T09:20:27;29.20;99.90
59311;DHT22;45078;51.654;21.250;2022-08-19T09:22:53;29.30;99.90
59311;DHT22;45078;51.654;21.250;2022-08-19T09:25:21;29.30;99.90
59311;DHT22;45078;51.654;21.250;2022-08-19T09:27:48;29.40;99.90
59311;DHT22;45078;51.654;21.250;2022-08-19T09:30:26;29.50;99.90
59311;DHT22;45078;51.654;21.250;2022-08-19T09:32:53;29.50;99.90
59311;DHT22;45078;51.654;21.250;2022-08-19T09:35:24;29.40;99.90
59311;DHT22;45078;51.654;21.250;2022-08-19T09:37:51;29.40;99.90
59311;DHT22;45078;51.654;21.250;2022-08-19T09:40:17;29.60;99.90
59311;DHT22;45078;51.654;21.250;2022-08-19T09:42:44;29.60;99.60
59311;DHT22;45078;51.654;21.250;2022-08-19T09:45:13;29.60;99.30
59311;DHT22;45078;51.654;21.250;2022-08-19T09:47:39;29.60;99.40
59311;DHT22;45078;51.654;21.250;2022-08-19T09:50:07;29.60;99.20
59311;DHT22;45078;51.654;21.250;2022-08-19T09:52:33;29.60;98.80
59311;DHT22;45078;51.654;21.250;2022-08-19T09:55:07;29.70;99.90
59311;DHT22;45078;51.654;21.250;2022-08-19T09:57:33;29.60;98.80
59311;DHT22;45078;51.654;21.250;2022-08-19T09:59:59;29.60;99.30
59311;DHT22;45078;51.654;21.250;2022-08-19T10:02:25;29.70;99.00
59311;DHT22;45078;51.654;21.250;2022-08-19T10:04:51;29.60;99.40
59311;DHT22;45078;51.654;21.250;2022-08-19T10:07:37;29.90;99.40
59311;DHT22;45078;51.654;21.250;2022-08-19T10:10:04;29.90;99.60
59311;DHT22;45078;51.654;21.250;2022-08-19T10:12:31;29.80;99.00
59311;DHT22;45078;51.654;21.250;2022-08-19T10:14:59;29.90;99.50
59311;DHT22;45078;51.654;21.250;2022-08-19T10:17:24;30.00;99.50
59311;DHT22;45078;51.654;21.250;2022-08-19T10:19:51;30.10;99.90
59311;DHT22;45078;51.654;21.250;2022-08-19T10:22:18;30.20;99.90
59311;DHT22;45078;51.654;21.250;2022-08-19T10:24:46;30.20;99.70
59311;DHT22;45078;51.654;21.250;2022-08-19T10:27:11;30.30;98.90
59311;DHT22;45078;51.654;21.250;2022-08-19T10:29:39;30.10;99.50
59311;DHT22;45078;51.654;21.250;2022-08-19T10:32:07;30.10;99.00
59311;DHT22;45078;51.654;21.250;2022-08-19T10:34:36;30.20;99.00
59311;DHT22;45078;51.654;21.250;2022-08-19T10:37:04;30.30;99.50
59311;DHT22;45078;51.654;21.250;2022-08-19T10:39:32;30.30;98.30
59311;DHT22;45078;51.654;21.250;2022-08-19T10:41:59;30.30;98.40
59311;DHT22;45078;51.654;21.250;2022-08-19T10:44:25;30.40;98.00
59311;DHT22;45078;51.654;21.250;2022-08-19T10:46:50;30.50;98.40
59311;DHT22;45078;51.654;21.250;2022-08-19T10:49:17;30.60;97.60
59311;DHT22;45078;51.654;21.250;2022-08-19T10:51:45;30.60;97.20
59311;DHT22;45078;51.654;21.250;2022-08-19T10:54:29;30.50;97.50
59311;DHT22;45078;51.654;21.250;2022-08-19T10:57:14;30.70;97.60
59311;DHT22;45078;51.654;21.250;2022-08-19T10:59:41;30.60;96.80
59311;DHT22;45078;51.654;21.250;2022-08-19T11:02:09;30.80;97.50
59311;DHT22;45078;51.654;21.250;2022-08-19T11:04:36;30.70;96.40
59311;DHT22;45078;51.654;21.250;2022-08-19T11:07:04;30.70;96.20
59311;DHT22;45078;51.654;21.250;2022-08-19T11:09:30;30.90;96.80
59311;DHT22;45078;51.654;21.250;2022-08-19T11:11:56;31.10;97.30
59311;DHT22;45078;51.654;21.250;2022-08-19T11:14:23;31.00;95.00
59311;DHT22;45078;51.654;21.250;2022-08-19T11:16:50;30.90;94.90
59311;DHT22;45078;51.654;21.250;2022-08-19T11:19:17;30.90;95.10
59311;DHT22;45078;51.654;21.250;2022-08-19T11:21:46;30.90;94.70
59311;DHT22;45078;51.654;21.250;2022-08-19T11:24:18;30.90;94.00
59311;DHT22;45078;51.654;21.250;2022-08-19T11:26:47;30.90;94.70
59311;DHT22;45078;51.654;21.250;2022-08-19T11:29:18;30.80;94.60
59311;DHT22;45078;51.654;21.250;2022-08-19T11:31:46;30.70;93.20
59311;DHT22;45078;51.654;21.250;2022-08-19T11:34:18;30.80;94.30
59311;DHT22;45078;51.654;21.250;2022-08-19T11:36:45;30.90;94.30
59311;DHT22;45078;51.654;21.250;2022-08-19T11:39:14;31.20;94.70
59311;DHT22;45078;51.654;21.250;2022-08-19T11:41:40;31.20;93.10
59311;DHT22;45078;51.654;21.250;2022-08-19T11:44:06;31.10;92.20
59311;DHT22;45078;51.654;21.250;2022-08-19T11:46:35;31.00;92.70
59311;DHT22;45078;51.654;21.250;2022-08-19T11:49:01;30.90;92.30
59311;DHT22;45078;51.654;21.250;2022-08-19T11:51:29;30.90;92.20
59311;DHT22;45078;51.654;21.250;2022-08-19T11:53:56;30.90;92.60
59311;DHT22;45078;51.654;21.250;2022-08-19T11:56:23;31.00;93.10
59311;DHT22;45078;51.654;21.250;2022-08-19T11:58:51;30.90;92.10
59311;DHT22;45078;51.654;21.250;2022-08-19T12:01:19;31.20;92.40
59311;DHT22;45078;51.654;21.250;2022-08-19T12:03:47;31.20;92.20
59311;DHT22;45078;51.654;21.250;2022-08-19T12:06:17;31.30;93.40
59311;DHT22;45078;51.654;21.250;2022-08-19T12:08:44;31.20;92.20
59311;DHT22;45078;51.654;21.250;2022-08-19T12:11:11;31.30;92.30
59311;DHT22;45078;51.654;21.250;2022-08-19T12:13:38;31.30;91.80
59311;DHT22;45078;51.654;21.250;2022-08-19T12:16:14;31.40;91.90
59311;DHT22;45078;51.654;21.250;2022-08-19T12:18:42;31.50;92.30
59311;DHT22;45078;51.654;21.250;2022-08-19T12:21:12;31.30;91.70
59311;DHT22;45078;51.654;21.250;2022-08-19T12:23:40;31.30;92.90
59311;DHT22;45078;51.654;21.250;2022-08-19T12:26:06;31.30;92.30
59311;DHT22;45078;51.654;21.250;2022-08-19T12:28:32;31.40;91.70
59311;DHT22;45078;51.654;21.250;2022-08-19T12:30:58;31.50;91.30
59311;DHT22;45078;51.654;21.250;2022-08-19T12:33:23;31.50;90.00
59311;DHT22;45078;51.654;21.250;2022-08-19T12:35:53;31.50;91.40
59311;DHT22;45078;51.654;21.250;2022-08-19T12:38:19;31.70;92.10
59311;DHT22;45078;51.654;21.250;2022-08-19T12:40:46;31.50;89.40
59311;DHT22;45078;51.654;21.250;2022-08-19T12:43:12;31.60;90.70
59311;DHT22;45078;51.654;21.250;2022-08-19T12:45:39;31.70;91.20
59311;DHT22;45078;51.654;21.250;2022-08-19T12:48:05;31.70;90.20
59311;DHT22;45078;51.654;21.250;2022-08-19T12:50:31;31.90;90.20
59311;DHT22;45078;51.654;21.250;2022-08-19T12:52:57;31.90;90.70
59311;DHT22;45078;51.654;21.250;2022-08-19T12:55:23;31.80;90.00
59311;DHT22;45078;51.654;21.250;2022-08-19T12:57:50;31.60;86.50
59311;DHT22;45078;51.654;21.250;2022-08-19T13:00:18;31.70;89.70
59311;DHT22;45078;51.654;21.250;2022-08-19T13:02:48;31.70;87.60
59311;DHT22;45078;51.654;21.250;2022-08-19T13:05:23;31.80;87.50
59311;DHT22;45078;51.654;21.250;2022-08-19T13:07:51;31.90;88.70
59311;DHT22;45078;51.654;21.250;2022-08-19T13:10:20;32.10;87.30
59311;DHT22;45078;51.654;21.250;2022-08-19T13:12:48;32.00;84.70
59311;DHT22;45078;51.654;21.250;2022-08-19T13:15:15;32.10;87.90
59311;DHT22;45078;51.654;21.250;2022-08-19T13:17:43;32.20;85.50
59311;DHT22;45078;51.654;21.250;2022-08-19T13:20:10;32.30;85.90
59311;DHT22;45078;51.654;21.250;2022-08-19T13:22:37;32.20;85.30
59311;DHT22;45078;51.654;21.250;2022-08-19T13:25:05;32.20;84.10
59311;DHT22;45078;51.654;21.250;2022-08-19T13:27:31;32.30;84.20
59311;DHT22;45078;51.654;21.250;2022-08-19T13:29:56;32.50;84.90
59311;DHT22;45078;51.654;21.250;2022-08-19T13:32:41;32.40;82.20
59311;DHT22;45078;51.654;21.250;2022-08-19T13:35:25;32.20;82.60
59311;DHT22;45078;51.654;21.250;2022-08-19T13:37:51;32.30;84.00
59311;DHT22;45078;51.654;21.250;2022-08-19T13:40:19;32.50;83.20
59311;DHT22;45078;51.654;21.250;2022-08-19T13:42:48;32.50;78.80
59311;DHT22;45078;51.654;21.250;2022-08-19T13:45:17;32.50;80.00
59311;DHT22;45078;51.654;21.250;2022-08-19T13:47:46;32.30;76.50
59311;DHT22;45078;51.654;21.250;2022-08-19T13:50:14;32.40;76.80
59311;DHT22;45078;51.654;21.250;2022-08-19T13:52:41;32.80;77.50
59311;DHT22;45078;51.654;21.250;2022-08-19T13:55:09;32.60;75.60
59311;DHT22;45078;51.654;21.250;2022-08-19T13:57:36;32.70;75.50
59311;DHT22;45078;51.654;21.250;2022-08-19T14:00:07;32.80;75.20
59311;DHT22;45078;51.654;21.250;2022-08-19T14:02:36;33.00;75.80
59311;DHT22;45078;51.654;21.250;2022-08-19T14:05:04;33.20;75.80
59311;DHT22;45078;51.654;21.250;2022-08-19T14:07:30;33.50;75.40
59311;DHT22;45078;51.654;21.250;2022-08-19T14:09:56;34.00;74.70
59311;DHT22;45078;51.654;21.250;2022-08-19T14:12:22;34.10;71.10
59311;DHT22;45078;51.654;21.250;2022-08-19T14:14:49;34.80;71.30
59311;DHT22;45078;51.654;21.250;2022-08-19T14:17:15;34.50;69.10
59311;DHT22;45078;51.654;21.250;2022-08-19T14:19:41;34.80;68.00
59311;DHT22;45078;51.654;21.250;2022-08-19T14:22:07;34.70;66.90
59311;DHT22;45078;51.654;21.250;2022-08-19T14:24:33;34.40;66.80
59311;DHT22;45078;51.654;21.250;2022-08-19T14:26:59;34.90;68.00
59311;DHT22;45078;51.654;21.250;2022-08-19T14:29:25;35.60;67.10
59311;DHT22;45078;51.654;21.250;2022-08-19T14:31:53;36.00;65.60
59311;DHT22;45078;51.654;21.250;2022-08-19T14:34:18;36.30;64.50
59311;DHT22;45078;51.654;21.250;2022-08-19T14:36:44;36.30;63.10
59311;DHT22;45078;51.654;21.250;2022-08-19T14:39:10;37.10;62.90
59311;DHT22;45078;51.654;21.250;2022-08-19T14:41:40;37.30;62.30
59311;DHT22;45078;51.654;21.250;2022-08-19T14:44:07;37.60;61.80
59311;DHT22;45078;51.654;21.250;2022-08-19T14:46:35;36.70;59.40
59311;DHT22;45078;51.654;21.250;2022-08-19T14:49:01;36.20;60.70
59311;DHT22;45078;51.654;21.250;2022-08-19T14:51:27;35.90;60.90
59311;DHT22;45078;51.654;21.250;2022-08-19T14:53:53;35.80;61.70
59311;DHT22;45078;51.654;21.250;2022-08-19T14:56:22;35.60;61.60
59311;DHT22;45078;51.654;21.250;2022-08-19T14:58:48;35.30;62.60
59311;DHT22;45078;51.654;21.250;2022-08-19T15:01:17;35.30;63.50
59311;DHT22;45078;51.654;21.250;2022-08-19T15:03:46;35.30;63.00
59311;DHT22;45078;51.654;21.250;2022-08-19T15:06:12;35.40;63.90
59311;DHT22;45078;51.654;21.250;2022-08-19T15:08:39;35.30;62.40
59311;DHT22;45078;51.654;21.250;2022-08-19T15:11:12;34.90;64.10
59311;DHT22;45078;51.654;21.250;2022-08-19T15:13:40;34.60;63.20
59311;DHT22;45078;51.654;21.250;2022-08-19T15:16:07;34.20;65.30
59311;DHT22;45078;51.654;21.250;2022-08-19T15:18:33;34.20;65.00
59311;DHT22;45078;51.654;21.250;2022-08-19T15:21:00;33.90;66.00
59311;DHT22;45078;51.654;21.250;2022-08-19T15:23:26;33.80;66.20
59311;DHT22;45078;51.654;21.250;2022-08-19T15:25:52;33.70;67.80
59311;DHT22;45078;51.654;21.250;2022-08-19T15:28:25;33.10;67.60
59311;DHT22;45078;51.654;21.250;2022-08-19T15:30:51;33.10;69.40
59311;DHT22;45078;51.654;21.250;2022-08-19T15:33:18;32.80;69.30
59311;DHT22;45078;51.654;21.250;2022-08-19T15:35:46;32.50;69.50
59311;DHT22;45078;51.654;21.250;2022-08-19T15:38:13;32.20;70.20
59311;DHT22;45078;51.654;21.250;2022-08-19T15:40:40;32.00;71.50